Time;durP1;ratioP1;P1;durP2;ratioP2;P2;SDS_P1;SDS_P2;PMS_P1;PMS_P2;Temp;Humidity;BMP_temperature;BMP_pressure;BME280_temperature;BME280_humidity;BME280_pressure;Samples;Min_cycle;Max_cycle;Signal;HPM_P1;HPM_P2
2023/07/09 00:01:05;;;;;;;13.90;8.27;;;;;;;;;;5018453;28;93277;-74
2023/07/09 00:03:31;;;;;;;13.30;8.30;;;;;;;;;;5015000;28;93215;-74
2023/07/09 00:05:58;;;;;;;16.80;8.77;;;;;;;;;;5015273;28;93280;-74
2023/07/09 00:08:27;;;;;;;13.82;9.10;;;;;;;;;;5014923;28;92495;-74
2023/07/09 00:10:54;;;;;;;19.77;10.03;;;;;;;;;;5014671;28;93052;-73
2023/07/09 00:13:21;;;;;;;17.85;10.20;;;;;;;;;;5014384;28;94813;-74
2023/07/09 00:15:48;;;;;;;14.45;10.20;;;;;;;;;;5014531;28;91634;-74
2023/07/09 00:18:14;;;;;;;19.92;9.23;;;;;;;;;;5013992;28;92400;-74
2023/07/09 00:20:43;;;;;;;13.00;8.10;;;;;;;;;;5015132;28;93074;-73
2023/07/09 00:23:13;;;;;;;10.70;9.05;;;;;;;;;;5016426;28;94784;-73
2023/07/09 00:25:43;;;;;;;13.75;8.13;;;;;;;;;;5014417;28;93533;-74
2023/07/09 00:28:14;;;;;;;15.90;9.00;;;;;;;;;;5014485;28;92471;-74
2023/07/09 00:30:41;;;;;;;15.52;8.50;;;;;;;;;;5014759;28;93281;-74
2023/07/09 00:33:14;;;;;;;15.27;9.25;;;;;;;;;;5014300;28;92402;-73
2023/07/09 00:35:46;;;;;;;16.02;8.85;;;;;;;;;;5014505;28;92473;-73
2023/07/09 00:38:14;;;;;;;13.10;8.52;;;;;;;;;;5014411;28;93554;-74
2023/07/09 00:40:45;;;;;;;11.57;8.90;;;;;;;;;;5014945;28;92887;-73
2023/07/09 00:43:14;;;;;;;12.48;9.05;;;;;;;;;;5013223;28;92466;-73
2023/07/09 00:45:41;;;;;;;17.13;9.10;;;;;;;;;;5017302;28;93349;-73
2023/07/09 00:48:12;;;;;;;18.17;9.68;;;;;;;;;;5013048;28;95144;-74
2023/07/09 00:50:42;;;;;;;23.30;9.60;;;;;;;;;;5013129;28;95485;-74
2023/07/09 00:53:13;;;;;;;15.83;9.57;;;;;;;;;;5013980;28;94134;-74
2023/07/09 00:55:41;;;;;;;16.58;9.38;;;;;;;;;;5013152;28;92989;-73
2023/07/09 00:58:11;;;;;;;14.52;9.90;;;;;;;;;;5014200;28;92425;-74
2023/07/09 01:00:46;;;;;;;15.80;9.57;;;;;;;;;;5012833;28;93527;-73
2023/07/09 01:03:18;;;;;;;19.15;9.82;;;;;;;;;;5014296;28;92538;-74
2023/07/09 01:05:51;;;;;;;16.42;9.57;;;;;;;;;;5016474;28;93210;-73
2023/07/09 01:08:19;;;;;;;12.13;9.05;;;;;;;;;;5014325;28;92645;-73
2023/07/09 01:10:46;;;;;;;15.50;10.27;;;;;;;;;;5014040;28;93248;-73
2023/07/09 01:13:12;;;;;;;13.50;9.10;;;;;;;;;;5011366;28;94792;-73
2023/07/09 01:15:39;;;;;;;15.80;9.38;;;;;;;;;;5014120;28;92674;-73
2023/07/09 01:18:05;;;;;;;13.75;8.98;;;;;;;;;;5014298;28;93567;-74
2023/07/09 01:20:33;;;;;;;14.27;9.20;;;;;;;;;;5013804;28;93614;-74
2023/07/09 01:23:00;;;;;;;14.52;9.88;;;;;;;;;;5013865;28;92411;-73
2023/07/09 01:25:30;;;;;;;13.13;9.18;;;;;;;;;;5014071;28;93046;-73
2023/07/09 01:27:56;;;;;;;14.55;9.25;;;;;;;;;;5016221;28;93576;-73
2023/07/09 01:30:23;;;;;;;16.88;9.60;;;;;;;;;;5014457;28;93186;-73
2023/07/09 01:32:50;;;;;;;14.60;8.98;;;;;;;;;;5012652;28;93883;-73
2023/07/09 01:35:18;;;;;;;14.65;9.38;;;;;;;;;;5013817;28;92372;-73
2023/07/09 01:37:46;;;;;;;20.20;10.02;;;;;;;;;;5011241;28;94829;-74
2023/07/09 01:40:14;;;;;;;18.05;9.73;;;;;;;;;;5012954;28;93964;-73
2023/07/09 01:42:58;;;;;;;19.30;9.80;;;;;;;;;;5014036;28;92554;-74
2023/07/09 01:45:25;;;;;;;15.80;8.98;;;;;;;;;;5013912;28;93214;-73
2023/07/09 01:47:53;;;;;;;17.05;8.75;;;;;;;;;;5013891;28;93971;-74
2023/07/09 01:50:20;;;;;;;16.67;9.10;;;;;;;;;;5016795;28;92464;-73
2023/07/09 01:52:49;;;;;;;14.82;8.20;;;;;;;;;;5013275;28;93525;-73
2023/07/09 01:55:16;;;;;;;10.05;7.63;;;;;;;;;;5014330;28;91760;-73
2023/07/09 01:57:43;;;;;;;14.50;8.07;;;;;;;;;;5013275;28;92464;-73
2023/07/09 02:00:13;;;;;;;12.90;7.93;;;;;;;;;;5013285;28;94831;-73
2023/07/09 02:02:42;;;;;;;12.52;8.15;;;;;;;;;;5011824;28;94862;-73
2023/07/09 02:05:09;;;;;;;16.60;8.15;;;;;;;;;;5013247;28;95749;-73
2023/07/09 02:07:36;;;;;;;11.90;7.75;;;;;;;;;;5015184;28;93487;-73
2023/07/09 02:10:03;;;;;;;11.23;7.70;;;;;;;;;;5016806;28;92863;-73
2023/07/09 02:12:29;;;;;;;11.05;7.75;;;;;;;;;;5018460;28;93528;-73
2023/07/09 02:14:56;;;;;;;11.98;7.68;;;;;;;;;;5016984;28;92646;-73
2023/07/09 02:17:22;;;;;;;12.95;8.25;;;;;;;;;;5017075;28;92919;-73
2023/07/09 02:19:48;;;;;;;14.13;8.25;;;;;;;;;;5016881;28;92619;-73
2023/07/09 02:22:15;;;;;;;18.25;8.05;;;;;;;;;;5017211;28;92925;-73
2023/07/09 02:24:41;;;;;;;13.23;8.15;;;;;;;;;;5016756;28;93229;-74
2023/07/09 02:27:10;;;;;;;12.90;8.75;;;;;;;;;;5013980;28;95959;-73
2023/07/09 02:29:36;;;;;;;11.20;7.93;;;;;;;;;;5016657;28;92425;-73
2023/07/09 02:32:03;;;;;;;11.60;7.88;;;;;;;;;;5016419;28;93313;-73
2023/07/09 02:34:29;;;;;;;13.23;8.00;;;;;;;;;;5019120;28;93291;-73
2023/07/09 02:36:57;;;;;;;13.45;8.75;;;;;;;;;;5016487;28;93416;-73
2023/07/09 02:39:23;;;;;;;11.55;8.20;;;;;;;;;;5016142;28;93579;-73
2023/07/09 02:41:50;;;;;;;14.80;8.40;;;;;;;;;;5016201;28;92449;-73
2023/07/09 02:44:17;;;;;;;9.55;7.78;;;;;;;;;;5016949;28;94516;-73
2023/07/09 02:46:43;;;;;;;13.13;8.98;;;;;;;;;;5016122;28;93611;-73
2023/07/09 02:49:11;;;;;;;14.30;8.88;;;;;;;;;;5015738;28;92557;-73
2023/07/09 02:51:37;;;;;;;10.85;8.73;;;;;;;;;;5014584;28;94847;-73
2023/07/09 02:54:04;;;;;;;14.95;8.70;;;;;;;;;;5015988;28;93785;-73
2023/07/09 02:56:30;;;;;;;12.60;8.77;;;;;;;;;;5019277;28;92589;-73
2023/07/09 02:58:57;;;;;;;11.20;8.20;;;;;;;;;;5016049;28;94969;-73
2023/07/09 03:01:26;;;;;;;14.18;8.43;;;;;;;;;;5015940;28;92485;-73
2023/07/09 03:03:54;;;;;;;18.23;9.02;;;;;;;;;;5015942;28;93166;-73
2023/07/09 03:06:21;;;;;;;14.18;8.18;;;;;;;;;;5015793;28;93418;-73
2023/07/09 03:08:48;;;;;;;11.73;8.50;;;;;;;;;;5016420;28;91768;-73
2023/07/09 03:11:15;;;;;;;12.52;8.25;;;;;;;;;;5015721;28;92615;-73
2023/07/09 03:13:41;;;;;;;14.63;8.80;;;;;;;;;;5015883;28;93622;-72
2023/07/09 03:16:08;;;;;;;12.13;8.02;;;;;;;;;;5017579;28;94816;-73
2023/07/09 03:18:35;;;;;;;14.55;8.35;;;;;;;;;;5014373;28;93984;-73
2023/07/09 03:21:01;;;;;;;13.32;8.35;;;;;;;;;;5015847;28;92455;-73
2023/07/09 03:23:28;;;;;;;14.98;8.30;;;;;;;;;;5015883;28;94284;-73
2023/07/09 03:25:55;;;;;;;15.23;8.73;;;;;;;;;;5015327;28;93751;-73
2023/07/09 03:28:21;;;;;;;11.57;7.80;;;;;;;;;;5015448;28;93038;-73
2023/07/09 03:30:48;;;;;;;14.82;8.00;;;;;;;;;;5015526;28;93200;-73
2023/07/09 03:33:15;;;;;;;11.65;8.15;;;;;;;;;;5015896;28;93226;-73
2023/07/09 03:35:42;;;;;;;15.20;8.35;;;;;;;;;;5015561;28;92400;-73
2023/07/09 03:38:10;;;;;;;12.15;8.23;;;;;;;;;;5018178;28;93245;-73
2023/07/09 03:40:37;;;;;;;9.18;8.10;;;;;;;;;;5013533;28;94867;-73
2023/07/09 03:43:04;;;;;;;10.05;7.90;;;;;;;;;;5015205;28;97112;-72
2023/07/09 03:45:32;;;;;;;10.70;8.52;;;;;;;;;;5015085;28;92508;-73
2023/07/09 03:47:59;;;;;;;16.58;8.38;;;;;;;;;;5013846;28;92524;-73
2023/07/09 03:50:26;;;;;;;11.18;7.60;;;;;;;;;;5015317;28;92546;-73
2023/07/09 03:52:52;;;;;;;11.65;8.45;;;;;;;;;;5015216;28;93191;-73
2023/07/09 03:55:19;;;;;;;11.60;7.80;;;;;;;;;;5014963;28;92484;-73
2023/07/09 03:57:45;;;;;;;14.00;7.85;;;;;;;;;;5015725;28;96381;-73
2023/07/09 04:00:12;;;;;;;13.88;8.25;;;;;;;;;;5018088;28;92726;-73
2023/07/09 04:02:39;;;;;;;12.30;8.00;;;;;;;;;;5014808;28;93168;-73
2023/07/09 04:05:06;;;;;;;14.05;8.15;;;;;;;;;;5013050;28;96272;-73
2023/07/09 04:07:32;;;;;;;11.93;8.40;;;;;;;;;;5014661;28;92439;-73
2023/07/09 04:09:59;;;;;;;9.90;8.25;;;;;;;;;;5014762;28;93187;-73
2023/07/09 04:12:25;;;;;;;9.43;7.22;;;;;;;;;;5013368;28;93214;-73
2023/07/09 04:14:51;;;;;;;9.52;6.95;;;;;;;;;;5014835;28;92670;-73
2023/07/09 04:17:18;;;;;;;10.65;7.40;;;;;;;;;;5014972;28;92446;-73
2023/07/09 04:19:44;;;;;;;13.77;7.80;;;;;;;;;;5014321;28;93479;-73
2023/07/09 04:22:10;;;;;;;12.23;7.85;;;;;;;;;;5018377;28;92029;-73
2023/07/09 04:24:37;;;;;;;12.70;7.20;;;;;;;;;;5014681;28;93795;-73
2023/07/09 04:27:03;;;;;;;10.77;7.38;;;;;;;;;;5013596;28;92428;-73
2023/07/09 04:29:30;;;;;;;14.98;7.75;;;;;;;;;;5012805;28;94777;-73
2023/07/09 04:31:56;;;;;;;19.42;7.60;;;;;;;;;;5014338;28;93174;-72
2023/07/09 04:34:23;;;;;;;11.15;7.07;;;;;;;;;;5014612;28;92848;-73
2023/07/09 04:36:49;;;;;;;13.52;7.80;;;;;;;;;;5014468;28;94682;-73
2023/07/09 04:39:15;;;;;;;11.35;7.35;;;;;;;;;;5014488;28;94200;-73
2023/07/09 04:41:42;;;;;;;10.90;7.93;;;;;;;;;;5014240;28;92391;-73
2023/07/09 04:44:09;;;;;;;8.80;7.35;;;;;;;;;;5017129;28;94617;-73
2023/07/09 04:46:35;;;;;;;11.23;7.40;;;;;;;;;;5015165;28;91701;-73
2023/07/09 04:49:02;;;;;;;9.95;7.72;;;;;;;;;;5014616;28;93459;-73
2023/07/09 04:51:29;;;;;;;9.88;7.43;;;;;;;;;;5013865;28;93608;-73
2023/07/09 04:53:55;;;;;;;13.40;7.15;;;;;;;;;;5011653;28;94862;-73
2023/07/09 04:56:22;;;;;;;9.05;7.25;;;;;;;;;;5013992;28;95803;-73
2023/07/09 04:58:49;;;;;;;10.43;7.30;;;;;;;;;;5013796;28;93464;-73
2023/07/09 05:01:15;;;;;;;9.70;6.80;;;;;;;;;;5012596;28;92476;-73
2023/07/09 05:03:42;;;;;;;13.70;7.38;;;;;;;;;;5014072;28;92966;-73
2023/07/09 05:06:08;;;;;;;11.35;6.97;;;;;;;;;;5016943;28;93372;-73
2023/07/09 05:08:35;;;;;;;10.98;7.55;;;;;;;;;;5013773;28;93282;-73
2023/07/09 05:11:01;;;;;;;12.48;7.70;;;;;;;;;;5014400;28;92694;-72
2023/07/09 05:13:28;;;;;;;16.33;7.80;;;;;;;;;;5013852;28;92471;-73
2023/07/09 05:15:54;;;;;;;12.55;7.25;;;;;;;;;;5014005;28;93624;-73
2023/07/09 05:18:21;;;;;;;11.50;7.53;;;;;;;;;;5012210;27;95914;-73
2023/07/09 05:20:47;;;;;;;12.63;8.48;;;;;;;;;;5013901;28;92449;-72
2023/07/09 05:23:13;;;;;;;11.65;7.40;;;;;;;;;;5013359;28;93537;-73
2023/07/09 05:25:40;;;;;;;11.82;7.75;;;;;;;;;;5015659;28;93422;-72
2023/07/09 05:28:11;;;;;;;17.10;8.50;;;;;;;;;;5013159;28;93331;-73
2023/07/09 05:30:41;;;;;;;13.63;9.18;;;;;;;;;;5013896;28;96493;-73
2023/07/09 05:33:07;;;;;;;13.30;9.03;;;;;;;;;;5013788;28;92439;-73
2023/07/09 05:35:33;;;;;;;19.20;8.55;;;;;;;;;;5014282;28;93216;-72
2023/07/09 05:38:00;;;;;;;12.27;8.90;;;;;;;;;;5013032;28;93487;-72
2023/07/09 05:40:26;;;;;;;11.93;8.77;;;;;;;;;;5013520;28;92414;-73
2023/07/09 05:42:52;;;;;;;14.23;9.13;;;;;;;;;;5014926;28;94788;-73
2023/07/09 05:45:19;;;;;;;12.88;8.70;;;;;;;;;;5016948;28;94527;-73
2023/07/09 05:47:45;;;;;;;14.95;9.20;;;;;;;;;;5005391;28;92456;-73
2023/07/09 05:50:12;;;;;;;18.13;9.13;;;;;;;;;;4996684;28;93443;-73
2023/07/09 05:52:38;;;;;;;19.05;10.82;;;;;;;;;;4996862;28;92795;-73
2023/07/09 05:55:05;;;;;;;18.50;11.75;;;;;;;;;;4996423;28;93318;-73
2023/07/09 05:57:32;;;;;;;24.83;12.45;;;;;;;;;;4996136;28;94689;-73
2023/07/09 05:59:58;;;;;;;21.45;12.98;;;;;;;;;;4996509;28;91731;-73
2023/07/09 06:02:24;;;;;;;25.73;12.70;;;;;;;;;;4995739;28;92903;-73
2023/07/09 06:04:51;;;;;;;25.80;11.50;;;;;;;;;;4995872;28;93535;-73
2023/07/09 06:07:20;;;;;;;26.98;12.95;;;;;;;;;;4994092;28;94882;-73
2023/07/09 06:09:47;;;;;;;26.75;12.00;;;;;;;;;;4999118;28;95823;-73
2023/07/09 06:12:14;;;;;;;23.98;12.77;;;;;;;;;;5011525;28;92437;-73
2023/07/09 06:14:40;;;;;;;30.67;12.98;;;;;;;;;;5015927;28;94309;-73
2023/07/09 06:17:07;;;;;;;30.05;14.35;;;;;;;;;;5016131;28;93577;-73
2023/07/09 06:19:33;;;;;;;20.63;12.50;;;;;;;;;;5015330;28;92434;-73
2023/07/09 06:22:00;;;;;;;23.42;13.43;;;;;;;;;;5015645;28;93217;-73
2023/07/09 06:24:26;;;;;;;24.88;12.52;;;;;;;;;;5016040;28;92878;-73
2023/07/09 06:26:53;;;;;;;24.02;13.75;;;;;;;;;;5015015;28;92499;-73
2023/07/09 06:29:19;;;;;;;25.95;13.02;;;;;;;;;;5015695;28;94289;-73
2023/07/09 06:31:46;;;;;;;21.48;13.93;;;;;;;;;;5017392;28;97036;-73
2023/07/09 06:34:12;;;;;;;28.10;13.55;;;;;;;;;;5015365;28;96879;-73
2023/07/09 06:36:39;;;;;;;30.45;14.27;;;;;;;;;;5015366;28;93575;-73
2023/07/09 06:39:08;;;;;;;19.42;13.65;;;;;;;;;;5015295;28;92670;-73
2023/07/09 06:41:38;;;;;;;20.83;13.85;;;;;;;;;;5013921;28;93210;-73
2023/07/09 06:44:08;;;;;;;27.52;14.88;;;;;;;;;;5015018;28;93444;-73
2023/07/09 06:46:34;;;;;;;24.13;12.27;;;;;;;;;;5013977;28;92522;-73
2023/07/09 06:49:02;;;;;;;25.95;14.02;;;;;;;;;;5014356;28;93122;-73
2023/07/09 06:51:28;;;;;;;25.77;13.90;;;;;;;;;;5014970;28;93516;-73
2023/07/09 06:53:55;;;;;;;24.27;14.30;;;;;;;;;;5017077;28;92532;-73
2023/07/09 06:56:21;;;;;;;21.60;12.38;;;;;;;;;;5013462;28;95877;-73
2023/07/09 06:58:47;;;;;;;27.65;13.32;;;;;;;;;;5015232;28;92442;-73
2023/07/09 07:01:14;;;;;;;27.70;13.18;;;;;;;;;;5014742;28;93384;-73
2023/07/09 07:03:40;;;;;;;28.60;12.63;;;;;;;;;;5014996;28;93446;-73
2023/07/09 07:06:07;;;;;;;23.05;12.98;;;;;;;;;;5015185;28;92483;-73
2023/07/09 07:08:34;;;;;;;19.05;13.23;;;;;;;;;;5014973;28;93303;-73
2023/07/09 07:11:02;;;;;;;18.73;11.40;;;;;;;;;;5013521;28;94611;-73
2023/07/09 07:13:29;;;;;;;21.40;12.18;;;;;;;;;;5015138;28;91765;-73
2023/07/09 07:15:56;;;;;;;20.83;13.43;;;;;;;;;;5017921;28;92585;-73
2023/07/09 07:18:23;;;;;;;21.55;12.45;;;;;;;;;;5014698;28;92568;-73
2023/07/09 07:20:50;;;;;;;20.25;12.88;;;;;;;;;;5013209;28;94804;-73
2023/07/09 07:23:17;;;;;;;22.30;13.25;;;;;;;;;;5014748;28;93515;-73
2023/07/09 07:25:45;;;;;;;25.35;12.77;;;;;;;;;;5014601;28;92627;-73
2023/07/09 07:28:11;;;;;;;23.42;12.10;;;;;;;;;;5014087;28;92338;-73
2023/07/09 07:30:37;;;;;;;21.20;11.45;;;;;;;;;;5014547;28;93512;-73
2023/07/09 07:33:04;;;;;;;27.60;13.32;;;;;;;;;;5014517;28;93044;-73
2023/07/09 07:35:30;;;;;;;28.25;12.32;;;;;;;;;;5017648;28;93205;-73
2023/07/09 07:37:56;;;;;;;21.75;10.65;;;;;;;;;;5015210;28;91808;-73
2023/07/09 07:40:23;;;;;;;19.55;10.15;;;;;;;;;;5014496;28;92727;-73
2023/07/09 07:42:49;;;;;;;27.27;11.00;;;;;;;;;;5014057;28;94770;-73
2023/07/09 07:45:16;;;;;;;17.80;11.45;;;;;;;;;;5013283;28;94873;-73
2023/07/09 07:47:43;;;;;;;15.82;9.65;;;;;;;;;;5014591;28;95629;-73
2023/07/09 07:50:10;;;;;;;17.17;10.05;;;;;;;;;;5014910;28;93602;-73
2023/07/09 07:52:37;;;;;;;20.58;9.52;;;;;;;;;;5014304;28;92410;-73
2023/07/09 07:55:05;;;;;;;12.05;8.20;;;;;;;;;;5014730;28;93248;-73
2023/07/09 07:57:31;;;;;;;16.52;8.75;;;;;;;;;;5018036;28;92362;-73
2023/07/09 07:59:57;;;;;;;13.38;7.68;;;;;;;;;;5014936;28;93188;-73
2023/07/09 08:02:26;;;;;;;20.30;9.00;;;;;;;;;;5015354;28;91791;-73
2023/07/09 08:04:53;;;;;;;13.52;8.02;;;;;;;;;;5014483;28;92801;-73
2023/07/09 08:07:20;;;;;;;18.48;8.15;;;;;;;;;;5014947;28;93207;-73
2023/07/09 08:09:46;;;;;;;15.30;7.68;;;;;;;;;;5013066;28;96244;-74
2023/07/09 08:12:13;;;;;;;22.42;8.38;;;;;;;;;;5014702;28;92543;-74
2023/07/09 08:14:42;;;;;;;31.23;9.80;;;;;;;;;;5014735;28;93268;-74
2023/07/09 08:17:08;;;;;;;15.43;7.72;;;;;;;;;;5014888;28;93468;-73
2023/07/09 08:19:48;;;;;;;18.10;9.00;;;;;;;;;;5017660;28;92492;-74
2023/07/09 08:22:15;;;;;;;21.73;8.50;;;;;;;;;;5014423;28;93493;-74
2023/07/09 08:24:42;;;;;;;16.42;8.35;;;;;;;;;;5014711;28;92479;-74
2023/07/09 08:27:09;;;;;;;13.05;7.63;;;;;;;;;;5014623;28;93559;-73
2023/07/09 08:29:35;;;;;;;10.70;7.45;;;;;;;;;;5014412;28;93391;-74
2023/07/09 08:32:02;;;;;;;17.55;7.50;;;;;;;;;;5014566;28;92590;-73
2023/07/09 08:34:29;;;;;;;14.82;8.02;;;;;;;;;;5013025;28;94808;-73
2023/07/09 08:36:55;;;;;;;18.10;6.70;;;;;;;;;;5014206;28;93600;-74
2023/07/09 08:39:22;;;;;;;14.45;7.35;;;;;;;;;;5014431;28;92457;-74
2023/07/09 08:41:52;;;;;;;9.15;6.70;;;;;;;;;;5017136;28;93267;-73
2023/07/09 08:44:42;;;;;;;10.18;6.10;;;;;;;;;;5014299;28;92507;-74
2023/07/09 08:47:11;;;;;;;20.80;8.27;;;;;;;;;;5014570;28;93516;-74
2023/07/09 08:49:40;;;;;;;16.00;7.97;;;;;;;;;;5014111;28;93613;-73
2023/07/09 08:52:14;;;;;;;11.50;7.73;;;;;;;;;;5014711;28;91762;-74
2023/07/09 08:54:41;;;;;;;14.60;7.55;;;;;;;;;;5013088;28;92569;-74
2023/07/09 08:57:27;;;;;;;14.52;8.23;;;;;;;;;;5013956;28;93686;-74
2023/07/09 08:59:57;;;;;;;10.48;8.05;;;;;;;;;;5011959;28;94871;-74
2023/07/09 09:02:30;;;;;;;18.52;7.80;;;;;;;;;;5014185;28;96929;-74
2023/07/09 09:04:56;;;;;;;15.77;8.43;;;;;;;;;;5016991;28;93870;-74
2023/07/09 09:07:28;;;;;;;17.25;7.75;;;;;;;;;;5014134;28;93216;-74
2023/07/09 09:10:00;;;;;;;14.02;6.68;;;;;;;;;;5013698;28;93591;-74
2023/07/09 09:12:29;;;;;;;12.02;6.40;;;;;;;;;;5013788;28;92437;-74
2023/07/09 09:15:25;;;;;;;15.83;7.43;;;;;;;;;;5012809;28;93360;-74
2023/07/09 09:17:53;;;;;;;15.23;6.60;;;;;;;;;;5012107;27;91674;-74
2023/07/09 09:20:23;;;;;;;14.65;6.80;;;;;;;;;;5017386;28;92452;-74
2023/07/09 09:22:52;;;;;;;9.30;7.10;;;;;;;;;;5017053;28;93341;-74
2023/07/09 09:25:19;;;;;;;10.73;6.50;;;;;;;;;;5015520;28;95997;-73
2023/07/09 09:27:45;;;;;;;12.70;7.03;;;;;;;;;;5019546;28;92490;-74
2023/07/09 09:30:19;;;;;;;12.37;6.43;;;;;;;;;;5015928;28;93656;-74
2023/07/09 09:32:52;;;;;;;17.40;7.35;;;;;;;;;;5017479;28;92425;-74
2023/07/09 09:35:20;;;;;;;14.07;7.40;;;;;;;;;;5017456;28;92772;-74
2023/07/09 09:37:51;;;;;;;16.00;7.47;;;;;;;;;;5017279;28;92455;-74
2023/07/09 09:40:18;;;;;;;17.65;7.25;;;;;;;;;;5017105;28;92437;-74
2023/07/09 09:42:45;;;;;;;13.88;7.20;;;;;;;;;;5017533;28;93303;-74
2023/07/09 09:45:13;;;;;;;11.55;7.20;;;;;;;;;;5016685;28;93411;-74
2023/07/09 09:47:40;;;;;;;11.52;6.95;;;;;;;;;;5019558;28;92436;-74
2023/07/09 09:50:06;;;;;;;10.88;7.05;;;;;;;;;;5015118;28;95988;-74
2023/07/09 09:52:34;;;;;;;22.25;7.20;;;;;;;;;;5017247;28;92410;-74
2023/07/09 09:55:10;;;;;;;12.18;6.72;;;;;;;;;;5016978;28;93141;-74
2023/07/09 09:57:36;;;;;;;14.65;6.63;;;;;;;;;;5016833;28;93517;-74
2023/07/09 10:00:08;;;;;;;15.68;6.90;;;;;;;;;;5013016;28;92524;-74
2023/07/09 10:02:40;;;;;;;14.27;6.93;;;;;;;;;;4996576;28;93340;-74
2023/07/09 10:05:16;;;;;;;10.68;6.70;;;;;;;;;;4996655;28;93390;-74
2023/07/09 10:07:45;;;;;;;14.82;6.90;;;;;;;;;;4997277;28;91697;-74
2023/07/09 10:10:17;;;;;;;12.90;6.47;;;;;;;;;;4999857;28;92467;-74
2023/07/09 10:12:57;;;;;;;11.27;6.30;;;;;;;;;;4996662;28;92467;-74
2023/07/09 10:15:39;;;;;;;10.40;6.40;;;;;;;;;;4995049;28;94892;-74
2023/07/09 10:18:18;;;;;;;11.63;5.97;;;;;;;;;;5014833;28;93525;-74
2023/07/09 10:20:51;;;;;;;11.93;6.03;;;;;;;;;;5016499;28;92401;-74
2023/07/09 10:23:17;;;;;;;14.93;5.70;;;;;;;;;;5016389;28;93286;-74
2023/07/09 10:25:48;;;;;;;12.35;5.78;;;;;;;;;;5015182;28;92556;-74
2023/07/09 10:28:31;;;;;;;14.68;5.85;;;;;;;;;;5016155;28;92504;-74
2023/07/09 10:31:11;;;;;;;10.48;5.47;;;;;;;;;;5016665;28;93339;-74
2023/07/09 10:33:55;;;;;;;11.93;5.25;;;;;;;;;;5019479;28;92541;-74
2023/07/09 10:36:29;;;;;;;20.38;6.57;;;;;;;;;;5016500;28;93765;-74
2023/07/09 10:39:07;;;;;;;16.50;6.15;;;;;;;;;;5016206;28;93621;-74
2023/07/09 10:41:36;;;;;;;16.27;6.00;;;;;;;;;;5014419;28;94849;-74
2023/07/09 10:44:16;;;;;;;16.33;5.50;;;;;;;;;;5015938;28;95604;-74
2023/07/09 10:46:45;;;;;;;13.85;6.38;;;;;;;;;;5016107;28;93566;-74
2023/07/09 10:49:13;;;;;;;16.73;5.85;;;;;;;;;;5016164;28;92681;-74
2023/07/09 10:51:41;;;;;;;9.35;5.53;;;;;;;;;;5015999;28;93228;-74
2023/07/09 10:54:12;;;;;;;21.20;6.27;;;;;;;;;;5015785;28;93463;-74
2023/07/09 10:56:38;;;;;;;12.35;6.38;;;;;;;;;;5018594;28;92568;-74
2023/07/09 10:59:17;;;;;;;18.27;6.55;;;;;;;;;;5016176;28;92791;-74
2023/07/09 11:01:46;;;;;;;12.38;5.78;;;;;;;;;;5015702;28;92787;-74
2023/07/09 11:04:21;;;;;;;12.40;6.27;;;;;;;;;;5015833;28;93181;-74
2023/07/09 11:06:49;;;;;;;8.75;5.07;;;;;;;;;;5014065;28;95992;-74
2023/07/09 11:09:21;;;;;;;13.25;5.75;;;;;;;;;;5015848;28;93556;-74
2023/07/09 11:11:50;;;;;;;11.75;5.78;;;;;;;;;;5015586;28;93122;-74
2023/07/09 11:14:22;;;;;;;13.80;4.95;;;;;;;;;;5014579;28;93427;-74
2023/07/09 11:16:49;;;;;;;19.08;5.45;;;;;;;;;;5016115;28;92879;-74
2023/07/09 11:19:17;;;;;;;9.27;5.03;;;;;;;;;;5018695;28;93236;-74
2023/07/09 11:22:02;;;;;;;12.52;5.28;;;;;;;;;;5015000;28;92417;-74
2023/07/09 11:24:31;;;;;;;11.00;5.93;;;;;;;;;;5015999;28;93479;-74
2023/07/09 11:27:00;;;;;;;12.30;6.10;;;;;;;;;;5015016;28;93943;-74
2023/07/09 11:29:27;;;;;;;10.65;5.35;;;;;;;;;;5015756;28;92817;-74
2023/07/09 11:31:53;;;;;;;9.93;5.72;;;;;;;;;;5012527;28;94852;-75
2023/07/09 11:34:26;;;;;;;10.32;5.63;;;;;;;;;;5015462;28;93427;-74
2023/07/09 11:36:55;;;;;;;11.38;6.35;;;;;;;;;;5015644;28;92351;-74
2023/07/09 11:39:30;;;;;;;20.13;6.90;;;;;;;;;;5017936;28;93287;-75
2023/07/09 11:41:56;;;;;;;11.63;5.85;;;;;;;;;;5015221;28;92424;-74
2023/07/09 11:44:24;;;;;;;15.63;6.18;;;;;;;;;;5015169;28;93337;-75
2023/07/09 11:46:53;;;;;;;12.55;6.50;;;;;;;;;;5015298;28;94247;-74
2023/07/09 11:49:23;;;;;;;10.63;5.78;;;;;;;;;;5015466;28;91680;-74
2023/07/09 11:51:53;;;;;;;10.32;6.20;;;;;;;;;;5014866;28;92464;-75
2023/07/09 11:54:20;;;;;;;15.80;6.03;;;;;;;;;;5014776;28;92508;-74
2023/07/09 11:56:56;;;;;;;15.50;8.00;;;;;;;;;;5012179;28;94885;-74
2023/07/09 11:59:23;;;;;;;16.08;7.70;;;;;;;;;;5014935;28;95604;-74
2023/07/09 12:01:52;;;;;;;15.57;7.78;;;;;;;;;;5017746;28;94983;-74
2023/07/09 12:04:20;;;;;;;16.05;8.25;;;;;;;;;;5014640;28;93242;-74
2023/07/09 12:06:47;;;;;;;15.90;9.18;;;;;;;;;;5014854;28;93516;-74
2023/07/09 12:09:18;;;;;;;13.50;9.07;;;;;;;;;;5014860;28;92422;-74
2023/07/09 12:11:45;;;;;;;15.30;8.43;;;;;;;;;;5013033;28;93141;-74
2023/07/09 12:14:14;;;;;;;12.90;7.30;;;;;;;;;;5015421;28;96530;-74
2023/07/09 12:16:42;;;;;;;9.88;6.80;;;;;;;;;;5015105;28;92503;-74
2023/07/09 12:19:10;;;;;;;11.73;6.97;;;;;;;;;;5013850;28;94202;-75
2023/07/09 12:21:38;;;;;;;12.10;6.55;;;;;;;;;;5012630;28;98401;-75
2023/07/09 12:24:15;;;;;;;9.38;6.15;;;;;;;;;;5015999;28;92505;-75
2023/07/09 12:26:42;;;;;;;9.48;6.35;;;;;;;;;;5012562;28;93490;-74
2023/07/09 12:29:09;;;;;;;10.85;6.25;;;;;;;;;;5015218;28;92565;-74
2023/07/09 12:31:35;;;;;;;12.82;5.97;;;;;;;;;;5014685;28;93463;-74
2023/07/09 12:34:02;;;;;;;8.88;6.47;;;;;;;;;;5014594;28;92998;-74
2023/07/09 12:36:28;;;;;;;11.25;5.97;;;;;;;;;;5013187;28;92489;-74
2023/07/09 12:39:02;;;;;;;11.40;5.88;;;;;;;;;;5014816;28;93361;-75
2023/07/09 12:41:32;;;;;;;16.10;6.00;;;;;;;;;;5014233;28;93419;-74
2023/07/09 12:43:58;;;;;;;23.48;6.35;;;;;;;;;;5014233;28;92462;-74
2023/07/09 12:46:25;;;;;;;10.93;5.68;;;;;;;;;;5015879;28;95032;-74
2023/07/09 12:48:51;;;;;;;9.40;6.07;;;;;;;;;;5014368;28;92454;-74
2023/07/09 12:51:27;;;;;;;11.25;6.18;;;;;;;;;;5014162;28;93167;-74
2023/07/09 12:54:03;;;;;;;14.02;6.10;;;;;;;;;;5014352;28;93254;-74
2023/07/09 12:56:33;;;;;;;11.95;6.55;;;;;;;;;;5014246;28;92446;-74
2023/07/09 12:58:59;;;;;;;12.27;5.60;;;;;;;;;;5014079;28;93285;-74
2023/07/09 13:01:25;;;;;;;9.25;5.80;;;;;;;;;;5013877;28;93526;-74
2023/07/09 13:03:55;;;;;;;11.48;6.07;;;;;;;;;;5014325;28;91832;-74
2023/07/09 13:06:29;;;;;;;9.40;5.95;;;;;;;;;;5014182;28;92826;-74
2023/07/09 13:08:58;;;;;;;8.82;5.50;;;;;;;;;;5017320;28;92369;-74
2023/07/09 13:11:25;;;;;;;12.88;6.18;;;;;;;;;;5012748;28;95027;-74
2023/07/09 13:13:56;;;;;;;14.95;6.30;;;;;;;;;;5012631;28;93298;-74
2023/07/09 13:16:22;;;;;;;9.52;5.05;;;;;;;;;;5014028;28;92555;-74
2023/07/09 13:18:49;;;;;;;11.73;4.57;;;;;;;;;;5013842;28;93244;-74
2023/07/09 13:21:16;;;;;;;6.53;4.22;;;;;;;;;;5013570;28;92484;-74
2023/07/09 13:23:43;;;;;;;11.18;4.43;;;;;;;;;;5013842;28;92808;-74
2023/07/09 13:26:09;;;;;;;6.82;4.60;;;;;;;;;;5013748;28;93243;-74
2023/07/09 13:28:36;;;;;;;6.20;5.05;;;;;;;;;;5013371;28;93032;-74
2023/07/09 13:31:15;;;;;;;22.13;5.25;;;;;;;;;;5017047;28;92700;-74
2023/07/09 13:33:42;;;;;;;;;;;;;;;;;;5014128;28;94530;-74
2023/07/09 13:36:08;;;;;;;13.85;6.10;;;;;;;;;;5012962;28;116515;-74
2023/07/09 13:38:35;;;;;;;14.55;6.35;;;;;;;;;;5013528;28;96120;-74
2023/07/09 13:41:10;;;;;;;14.55;5.88;;;;;;;;;;5013521;28;93413;-74
2023/07/09 13:43:37;;;;;;;12.63;6.20;;;;;;;;;;5014278;28;92432;-74
2023/07/09 13:46:06;;;;;;;12.52;6.90;;;;;;;;;;5013367;28;93345;-74
2023/07/09 13:48:33;;;;;;;9.70;6.13;;;;;;;;;;5013834;28;93116;-74
2023/07/09 13:51:00;;;;;;;12.32;6.43;;;;;;;;;;5016541;28;92474;-74
2023/07/09 13:53:31;;;;;;;12.18;6.10;;;;;;;;;;5013734;28;93056;-74
2023/07/09 13:55:58;;;;;;;7.63;5.70;;;;;;;;;;5013520;28;92581;-74
2023/07/09 13:58:26;;;;;;;10.00;5.35;;;;;;;;;;5013298;28;93080;-74
2023/07/09 14:00:59;;;;;;;13.15;5.68;;;;;;;;;;5011591;28;95847;-74
2023/07/09 14:03:26;;;;;;;11.65;5.68;;;;;;;;;;5015047;28;92397;-74
2023/07/09 14:05:53;;;;;;;10.90;5.68;;;;;;;;;;5016836;28;93278;-74
2023/07/09 14:08:21;;;;;;;8.45;5.18;;;;;;;;;;5016204;28;93431;-74
2023/07/09 14:10:49;;;;;;;7.80;4.20;;;;;;;;;;5016748;28;92478;-74
2023/07/09 14:13:16;;;;;;;9.57;3.35;;;;;;;;;;5019453;28;93130;-75
2023/07/09 14:15:43;;;;;;;10.13;3.05;;;;;;;;;;5016747;28;92433;-74
2023/07/09 14:18:18;;;;;;;5.50;3.15;;;;;;;;;;5017247;28;93216;-73
2023/07/09 14:20:45;;;;;;;5.97;3.20;;;;;;;;;;5015990;28;93892;-74
2023/07/09 14:23:13;;;;;;;6.10;3.03;;;;;;;;;;5015351;28;92500;-74
2023/07/09 14:25:39;;;;;;;7.25;3.10;;;;;;;;;;5015097;28;94995;-74
2023/07/09 14:28:13;;;;;;;5.90;2.70;;;;;;;;;;5016217;28;93495;-74
2023/07/09 14:30:41;;;;;;;8.50;3.17;;;;;;;;;;5016451;28;92514;-74
2023/07/09 14:33:15;;;;;;;13.45;4.10;;;;;;;;;;5016647;28;92988;-74
2023/07/09 14:35:42;;;;;;;17.83;3.95;;;;;;;;;;5019457;28;93851;-74